createdAt,value
2023-11-29T00:00:32.346Z,0.93
2023-11-29T00:03:35.034Z,0.91
2023-11-29T00:06:37.472Z,0.93
2023-11-29T00:09:40.192Z,0.85
2023-11-29T00:12:43.001Z,0.81
2023-11-29T00:15:45.981Z,0.79
2023-11-29T00:18:50.097Z,0.76
2023-11-29T00:21:52.902Z,0.76
2023-11-29T00:24:55.277Z,0.73
2023-11-29T00:27:57.888Z,0.74
2023-11-29T00:31:00.563Z,0.65
2023-11-29T00:34:06.078Z,0.63
2023-11-29T00:37:08.827Z,0.58
2023-11-29T00:40:11.811Z,0.59
2023-11-29T00:43:15.923Z,0.55
2023-11-29T00:46:18.732Z,0.50
2023-11-29T00:49:21.351Z,0.52
2023-11-29T00:52:24.223Z,0.45
2023-11-29T00:55:33.078Z,0.45
2023-11-29T00:58:38.244Z,0.44
2023-11-29T01:01:41.418Z,0.45
2023-11-29T01:04:44.377Z,0.47
2023-11-29T01:07:47.059Z,0.50
2023-11-29T01:10:49.915Z,0.56
2023-11-29T01:13:52.834Z,0.51
2023-11-29T01:16:55.683Z,0.45
2023-11-29T01:19:58.337Z,0.49
2023-11-29T01:23:00.909Z,0.48
2023-11-29T01:26:03.185Z,0.43
2023-11-29T01:29:06.935Z,0.43
2023-11-29T01:32:10.100Z,0.51
2023-11-29T01:35:12.830Z,0.41
2023-11-29T01:38:15.516Z,0.47
2023-11-29T01:41:20.004Z,0.40
2023-11-29T01:44:22.327Z,0.42
2023-11-29T01:47:25.374Z,0.37
2023-11-29T01:50:29.680Z,0.24
2023-11-29T01:53:34.482Z,0.15
2023-11-29T01:56:37.387Z,-0.02
2023-11-29T01:59:40.364Z,-0.13
2023-11-29T02:02:43.657Z,-0.12
2023-11-29T02:05:46.840Z,-0.17
2023-11-29T02:08:49.454Z,-0.24
2023-11-29T02:11:53.675Z,-0.21
2023-11-29T02:14:57.877Z,-0.23
2023-11-29T02:18:01.074Z,-0.25
2023-11-29T02:21:04.259Z,-0.28
2023-11-29T02:24:11.144Z,-0.31
2023-11-29T02:27:13.984Z,-0.40
2023-11-29T02:30:16.308Z,-0.33
2023-11-29T02:33:19.103Z,-0.29
2023-11-29T02:36:21.658Z,-0.23
2023-11-29T02:39:24.477Z,-0.22
2023-11-29T02:42:26.824Z,-0.20
2023-11-29T02:45:29.573Z,-0.18
2023-11-29T02:48:32.423Z,-0.27
2023-11-29T02:51:35.080Z,-0.38
2023-11-29T02:54:37.403Z,-0.42
2023-11-29T02:57:40.619Z,-0.43
2023-11-29T03:00:43.625Z,-0.32
2023-11-29T03:03:46.597Z,-0.37
2023-11-29T03:06:48.910Z,-0.34
2023-11-29T03:09:51.451Z,-0.36
2023-11-29T03:12:53.832Z,-0.39
2023-11-29T03:15:56.785Z,-0.36
2023-11-29T03:18:59.393Z,-0.40
2023-11-29T03:22:02.263Z,-0.51
2023-11-29T03:25:05.070Z,-0.47
2023-11-29T03:28:07.954Z,-0.52
2023-11-29T03:31:10.268Z,-0.62
2023-11-29T03:34:15.577Z,-0.61
2023-11-29T03:37:17.946Z,-0.66
2023-11-29T03:40:20.844Z,-0.70
2023-11-29T03:43:23.399Z,-0.71
2023-11-29T03:46:28.743Z,-0.74
2023-11-29T03:49:31.281Z,-0.78
2023-11-29T03:52:33.909Z,-0.80
2023-11-29T03:55:36.287Z,-0.69
2023-11-29T03:58:40.009Z,-0.71
2023-11-29T04:01:42.680Z,-0.72
2023-11-29T04:04:45.590Z,-0.81
2023-11-29T04:07:47.855Z,-0.85
2023-11-29T04:10:51.213Z,-0.80
2023-11-29T04:13:53.488Z,-0.78
2023-11-29T04:16:56.598Z,-0.76
2023-11-29T04:19:59.076Z,-0.78
2023-11-29T04:23:01.706Z,-0.80
2023-11-29T04:26:04.241Z,-0.91
2023-11-29T04:29:08.450Z,-0.86
2023-11-29T04:32:11.341Z,-0.89
2023-11-29T04:35:14.116Z,-0.94
2023-11-29T04:38:17.003Z,-0.97
2023-11-29T04:41:20.017Z,-0.99
2023-11-29T04:44:23.067Z,-0.96
2023-11-29T04:47:26.392Z,-0.94
2023-11-29T04:50:29.053Z,-0.89
2023-11-29T04:53:31.863Z,-0.90
2023-11-29T04:56:34.655Z,-1.03
2023-11-29T04:59:39.656Z,-1.03
2023-11-29T05:02:42.404Z,-1.00
2023-11-29T05:05:45.450Z,-0.98
2023-11-29T05:08:48.155Z,-0.98
2023-11-29T05:11:51.845Z,-1.03
2023-11-29T05:14:56.801Z,-1.09
2023-11-29T05:17:59.871Z,-1.16
2023-11-29T05:21:02.494Z,-1.13
2023-11-29T05:24:05.821Z,-1.13
2023-11-29T05:27:08.633Z,-1.09
2023-11-29T05:30:11.581Z,-1.19
2023-11-29T05:33:14.054Z,-1.18
2023-11-29T05:36:16.916Z,-1.23
2023-11-29T05:39:20.855Z,-1.27
2023-11-29T05:42:23.916Z,-1.24
2023-11-29T05:45:26.285Z,-1.25
2023-11-29T05:48:29.175Z,-1.28
2023-11-29T05:51:31.763Z,-1.32
2023-11-29T05:54:34.668Z,-1.30
2023-11-29T05:57:37.141Z,-1.27
2023-11-29T06:00:39.821Z,-1.19
2023-11-29T06:03:42.795Z,-1.25
2023-11-29T06:06:45.463Z,-1.37
2023-11-29T06:09:48.484Z,-1.37
2023-11-29T06:12:51.083Z,-1.43
2023-11-29T06:15:53.803Z,-1.41
2023-11-29T06:18:56.181Z,-1.41
2023-11-29T06:21:59.079Z,-1.45
2023-11-29T06:25:01.750Z,-1.41
2023-11-29T06:28:04.887Z,-1.37
2023-11-29T06:31:10.228Z,-1.35
2023-11-29T06:34:12.826Z,-1.30
2023-11-29T06:37:15.961Z,-1.36
2023-11-29T06:40:18.953Z,-1.28
2023-11-29T06:43:21.582Z,-1.32
2023-11-29T06:46:24.244Z,-1.32
2023-11-29T06:49:29.601Z,-1.33
2023-11-29T06:52:32.850Z,-1.30
2023-11-29T06:55:35.514Z,-1.33
2023-11-29T06:58:39.207Z,-1.30
2023-11-29T07:01:41.794Z,-1.24
2023-11-29T07:04:45.212Z,-1.16
2023-11-29T07:07:48.601Z,-1.12
2023-11-29T07:10:51.567Z,-1.09
2023-11-29T07:13:54.147Z,-1.04
2023-11-29T07:16:57.003Z,-0.91
2023-11-29T07:20:01.574Z,-0.89
2023-11-29T07:23:05.323Z,-0.93
2023-11-29T07:26:07.738Z,-0.83
2023-11-29T07:29:10.436Z,-0.82
2023-11-29T07:32:15.784Z,-0.82
2023-11-29T07:35:18.459Z,-0.74
2023-11-29T07:38:21.088Z,-0.73
2023-11-29T07:41:23.989Z,-0.67
2023-11-29T07:44:26.822Z,-0.64
2023-11-29T07:47:30.535Z,-0.61
2023-11-29T07:50:33.050Z,-0.56
2023-11-29T07:53:35.730Z,-0.53
2023-11-29T07:56:38.487Z,-0.50
2023-11-29T07:59:41.673Z,-0.42
2023-11-29T08:02:44.603Z,-0.37
2023-11-29T08:05:47.861Z,-0.49
2023-11-29T08:08:51.290Z,-0.41
2023-11-29T08:11:54.058Z,-0.53
2023-11-29T08:14:56.742Z,-0.49
2023-11-29T08:18:03.370Z,-0.34
2023-11-29T08:21:06.285Z,-0.27
2023-11-29T08:24:09.175Z,-0.29
2023-11-29T08:27:11.862Z,-0.17
2023-11-29T08:30:14.699Z,-0.04
2023-11-29T08:33:17.840Z,0.12
2023-11-29T08:36:22.090Z,0.18
2023-11-29T08:39:24.610Z,0.15
2023-11-29T08:42:27.652Z,0.29
2023-11-29T08:45:30.112Z,0.54
2023-11-29T08:48:33.375Z,0.62
2023-11-29T08:51:36.094Z,0.66
2023-11-29T08:54:38.971Z,0.81
2023-11-29T08:57:41.311Z,0.94
2023-11-29T09:00:44.043Z,1.09
2023-11-29T09:03:47.038Z,1.01
2023-11-29T09:06:50.117Z,1.02
2023-11-29T09:09:52.668Z,1.10
2023-11-29T09:12:55.630Z,1.14
2023-11-29T09:15:58.340Z,1.36
2023-11-29T09:19:01.258Z,1.48
2023-11-29T09:22:06.531Z,1.20
2023-11-29T09:25:09.517Z,1.22
2023-11-29T09:28:17.053Z,1.38
2023-11-29T09:31:20.064Z,1.26
2023-11-29T09:34:23.772Z,1.40
2023-11-29T09:37:26.784Z,1.52
2023-11-29T09:40:29.391Z,1.37
2023-11-29T09:43:32.006Z,1.28
2023-11-29T09:46:35.185Z,1.18
2023-11-29T09:49:38.335Z,1.29
2023-11-29T09:52:41.047Z,1.30
2023-11-29T09:55:44.451Z,1.46
2023-11-29T09:58:47.078Z,1.44
2023-11-29T10:01:51.256Z,1.60
2023-11-29T10:04:54.341Z,1.78
2023-11-29T10:07:59.538Z,1.93
2023-11-29T10:11:02.813Z,1.85
2023-11-29T10:14:05.839Z,1.95
2023-11-29T10:17:14.188Z,1.94
2023-11-29T10:20:17.103Z,1.70
2023-11-29T10:23:20.426Z,1.54
2023-11-29T10:26:24.304Z,1.56
2023-11-29T10:29:28.199Z,1.33
2023-11-29T10:32:30.911Z,1.25
2023-11-29T10:35:35.369Z,1.17
2023-11-29T10:38:42.598Z,1.38
2023-11-29T10:41:50.918Z,1.59
2023-11-29T10:44:53.403Z,1.77
2023-11-29T10:48:01.854Z,1.85
2023-11-29T10:51:04.817Z,1.95
2023-11-29T10:54:10.070Z,2.08
2023-11-29T10:57:13.935Z,2.09
2023-11-29T11:00:17.131Z,2.20
2023-11-29T11:03:38.279Z,2.11
2023-11-29T11:06:41.994Z,2.02
2023-11-29T11:09:45.647Z,2.18
2023-11-29T11:12:48.798Z,2.33
2023-11-29T11:15:52.282Z,2.07
2023-11-29T11:18:56.356Z,2.00
2023-11-29T11:22:00.259Z,2.16
2023-11-29T11:25:09.189Z,2.32
2023-11-29T11:28:30.798Z,2.45
2023-11-29T11:31:34.977Z,2.24
2023-11-29T11:34:40.536Z,2.42
2023-11-29T11:37:49.146Z,2.49
2023-11-29T11:40:51.680Z,2.46
2023-11-29T11:43:54.561Z,2.21
2023-11-29T11:46:57.531Z,2.23
2023-11-29T11:50:00.288Z,2.38
2023-11-29T11:53:04.865Z,2.44
2023-11-29T11:56:17.348Z,2.40
2023-11-29T11:59:19.726Z,2.46
2023-11-29T12:02:22.559Z,2.37
2023-11-29T12:05:25.472Z,2.38
2023-11-29T12:08:28.275Z,2.30
2023-11-29T12:11:31.206Z,2.15
2023-11-29T12:14:36.649Z,2.09
2023-11-29T12:17:39.528Z,2.20
2023-11-29T12:20:43.622Z,2.32
2023-11-29T12:23:47.954Z,2.41
2023-11-29T12:26:53.193Z,2.55
2023-11-29T12:29:59.785Z,2.57
2023-11-29T12:33:03.173Z,2.30
2023-11-29T12:36:06.501Z,2.38
2023-11-29T12:39:09.269Z,2.48
2023-11-29T12:42:12.312Z,2.68
2023-11-29T12:45:15.390Z,2.67
2023-11-29T12:48:18.325Z,2.87
2023-11-29T12:51:20.771Z,4.47
2023-11-29T12:54:24.186Z,5.42
2023-11-29T12:57:27.089Z,4.86
2023-11-29T13:00:30.072Z,4.23
2023-11-29T13:03:32.725Z,3.97
2023-11-29T13:06:35.513Z,3.76
2023-11-29T13:09:38.200Z,3.78
2023-11-29T13:12:41.081Z,4.13
2023-11-29T13:15:43.636Z,3.87
2023-11-29T13:18:46.925Z,3.69
2023-11-29T13:21:49.707Z,3.32
2023-11-29T13:24:52.441Z,3.29
2023-11-29T13:27:55.440Z,3.09
2023-11-29T13:30:58.414Z,2.95
2023-11-29T13:34:01.011Z,2.97
2023-11-29T13:37:03.666Z,2.80
2023-11-29T13:40:06.348Z,2.60
2023-11-29T13:43:09.303Z,2.59
2023-11-29T13:46:11.970Z,2.44
2023-11-29T13:49:14.983Z,2.47
2023-11-29T13:52:23.432Z,2.44
2023-11-29T13:55:27.987Z,2.31
2023-11-29T13:58:30.581Z,2.18
2023-11-29T14:01:33.380Z,2.13
2023-11-29T14:04:36.545Z,2.05
2023-11-29T14:07:39.421Z,1.97
2023-11-29T14:10:42.356Z,1.94
2023-11-29T14:13:44.683Z,1.88
2023-11-29T14:16:48.303Z,1.78
2023-11-29T14:19:51.068Z,1.68
2023-11-29T14:22:53.955Z,1.51
2023-11-29T14:25:56.664Z,1.36
2023-11-29T14:29:00.199Z,1.23
2023-11-29T14:32:06.609Z,1.10
2023-11-29T14:35:09.558Z,0.99
2023-11-29T14:38:12.408Z,0.87
2023-11-29T14:41:15.593Z,0.84
2023-11-29T14:44:18.149Z,0.71
2023-11-29T14:47:22.102Z,0.61
2023-11-29T14:50:24.831Z,0.59
2023-11-29T14:53:27.880Z,0.53
2023-11-29T14:56:36.569Z,0.62
2023-11-29T14:59:41.304Z,0.70
2023-11-29T15:02:43.924Z,0.69
2023-11-29T15:05:47.068Z,0.68
2023-11-29T15:08:52.122Z,0.72
2023-11-29T15:11:56.113Z,0.74
2023-11-29T15:14:59.361Z,0.75
2023-11-29T15:18:02.394Z,0.76
2023-11-29T15:21:05.291Z,0.77
2023-11-29T15:24:08.325Z,0.90
2023-11-29T15:27:10.933Z,1.05
2023-11-29T15:30:14.241Z,1.00
2023-11-29T15:33:16.931Z,0.95
2023-11-29T15:36:20.659Z,0.91
2023-11-29T15:39:23.387Z,1.02
2023-11-29T15:42:26.083Z,1.17
2023-11-29T15:45:28.646Z,1.23
2023-11-29T15:48:31.670Z,1.29
2023-11-29T15:51:34.120Z,1.20
2023-11-29T15:54:37.103Z,1.07
2023-11-29T15:57:39.628Z,1.14
2023-11-29T16:00:42.605Z,1.18
2023-11-29T16:03:45.637Z,1.19
2023-11-29T16:06:48.174Z,1.18
2023-11-29T16:09:51.074Z,1.19
2023-11-29T16:12:53.712Z,1.09
2023-11-29T16:15:56.352Z,1.02
2023-11-29T16:18:59.847Z,0.95
2023-11-29T16:22:02.471Z,0.98
2023-11-29T16:25:04.954Z,0.95
2023-11-29T16:28:07.865Z,0.84
2023-11-29T16:31:10.896Z,0.76
2023-11-29T16:34:13.745Z,0.68
2023-11-29T16:37:16.140Z,0.56
2023-11-29T16:40:21.184Z,0.53
2023-11-29T16:43:23.952Z,0.42
2023-11-29T16:46:29.177Z,0.25
2023-11-29T16:49:34.469Z,0.25
2023-11-29T16:52:37.367Z,0.10
2023-11-29T16:55:39.960Z,-0.02
2023-11-29T16:58:42.858Z,-0.08
2023-11-29T17:01:46.788Z,-0.14
2023-11-29T17:04:49.815Z,-0.21
2023-11-29T17:07:52.784Z,-0.31
2023-11-29T17:10:56.148Z,-0.38
2023-11-29T17:13:58.543Z,-0.41
2023-11-29T17:17:01.250Z,-0.47
2023-11-29T17:20:04.667Z,-0.55
2023-11-29T17:23:07.333Z,-0.63
2023-11-29T17:26:09.710Z,-0.67
2023-11-29T17:29:12.520Z,-0.73
2023-11-29T17:32:14.935Z,-0.77
2023-11-29T17:35:17.689Z,-0.77
2023-11-29T17:38:20.897Z,-0.81
2023-11-29T17:41:25.127Z,-0.87
2023-11-29T17:44:27.459Z,-0.95
2023-11-29T17:47:30.924Z,-1.02
2023-11-29T17:50:33.452Z,-1.04
2023-11-29T17:53:36.181Z,-1.12
2023-11-29T17:56:42.877Z,-1.20
2023-11-29T17:59:45.810Z,-1.24
2023-11-29T18:02:48.205Z,-1.25
2023-11-29T18:05:51.205Z,-1.25
2023-11-29T18:08:53.631Z,-1.21
2023-11-29T18:11:56.583Z,-1.22
2023-11-29T18:15:00.476Z,-1.17
2023-11-29T18:18:03.366Z,-1.13
2023-11-29T18:21:06.269Z,-1.05
2023-11-29T18:24:09.136Z,-1.05
2023-11-29T18:27:11.884Z,-1.10
2023-11-29T18:30:14.715Z,-1.16
2023-11-29T18:33:17.656Z,-1.24
2023-11-29T18:36:21.020Z,-1.31
2023-11-29T18:39:23.468Z,-1.38
2023-11-29T18:42:26.134Z,-1.47
2023-11-29T18:45:28.796Z,-1.52
2023-11-29T18:48:31.897Z,-1.50
2023-11-29T18:51:35.270Z,-1.14
2023-11-29T18:54:37.890Z,-1.05
2023-11-29T18:57:42.733Z,-1.03
2023-11-29T19:00:47.092Z,-1.13
2023-11-29T19:03:49.586Z,-1.19
2023-11-29T19:06:52.337Z,-1.29
2023-11-29T19:09:54.753Z,-1.41
2023-11-29T19:12:57.720Z,-1.50
2023-11-29T19:16:00.186Z,-1.56
2023-11-29T19:19:04.442Z,-1.65
2023-11-29T19:22:06.938Z,-1.71
2023-11-29T19:25:09.769Z,-1.74
2023-11-29T19:28:12.247Z,-1.79
2023-11-29T19:31:17.459Z,-1.84
2023-11-29T19:34:19.874Z,-1.88
2023-11-29T19:37:22.813Z,-1.88
2023-11-29T19:40:32.203Z,-1.90
2023-11-29T19:43:35.468Z,-1.90
2023-11-29T19:46:38.371Z,-1.89
2023-11-29T19:49:41.674Z,-1.89
2023-11-29T19:52:52.012Z,-1.94
2023-11-29T19:56:00.035Z,-1.97
2023-11-29T19:59:04.272Z,-1.97
2023-11-29T20:02:07.510Z,-1.98
2023-11-29T20:05:11.192Z,-1.99
2023-11-29T20:08:13.869Z,-2.02
2023-11-29T20:11:16.822Z,-2.03
2023-11-29T20:14:22.887Z,-2.05
2023-11-29T20:17:31.738Z,-2.04
2023-11-29T20:20:46.176Z,-2.06
2023-11-29T20:23:56.979Z,-2.03
2023-11-29T20:26:59.684Z,-2.11
2023-11-29T20:30:03.119Z,-2.16
2023-11-29T20:33:05.746Z,-2.18
2023-11-29T20:36:08.996Z,-2.23
2023-11-29T20:39:14.100Z,-2.18
2023-11-29T20:42:16.924Z,-2.17
2023-11-29T20:45:19.252Z,-2.20
2023-11-29T20:48:22.160Z,-2.22
2023-11-29T20:51:25.034Z,-2.27
2023-11-29T20:54:27.732Z,-2.32
2023-11-29T20:57:30.316Z,-2.38
2023-11-29T21:00:32.951Z,-2.39
2023-11-29T21:03:35.884Z,-2.47
2023-11-29T21:06:38.835Z,-2.49
2023-11-29T21:09:42.148Z,-2.51
2023-11-29T21:12:45.816Z,-2.54
2023-11-29T21:15:48.607Z,-2.54
2023-11-29T21:18:51.710Z,-2.53
2023-11-29T21:21:54.418Z,-2.54
2023-11-29T21:24:57.089Z,-2.60
2023-11-29T21:27:59.970Z,-2.63
2023-11-29T21:31:03.481Z,-2.59
2023-11-29T21:34:05.889Z,-2.67
2023-11-29T21:37:10.945Z,-2.68
2023-11-29T21:40:15.226Z,-2.68
2023-11-29T21:43:17.927Z,-2.66
2023-11-29T21:46:20.239Z,-2.64
2023-11-29T21:49:23.118Z,-2.64
2023-11-29T21:52:25.388Z,-2.50
2023-11-29T21:55:27.916Z,-2.37
2023-11-29T21:58:30.179Z,-2.26
2023-11-29T22:01:33.223Z,-2.22
2023-11-29T22:04:36.196Z,-2.07
2023-11-29T22:07:38.920Z,-2.07
2023-11-29T22:10:41.668Z,-1.99
2023-11-29T22:13:44.030Z,-1.90
2023-11-29T22:16:47.158Z,-1.84
2023-11-29T22:19:49.675Z,-1.72
2023-11-29T22:22:52.231Z,-1.70
2023-11-29T22:25:54.762Z,-1.54
2023-11-29T22:28:57.627Z,-1.50
2023-11-29T22:32:00.194Z,-1.53
2023-11-29T22:35:03.221Z,-1.50
2023-11-29T22:38:05.880Z,-1.43
2023-11-29T22:41:08.960Z,-1.46
2023-11-29T22:44:12.170Z,-1.37
2023-11-29T22:47:15.400Z,-1.43
2023-11-29T22:50:18.127Z,-1.32
2023-11-29T22:53:20.851Z,-1.41
2023-11-29T22:56:23.479Z,-1.44
2023-11-29T22:59:26.205Z,-1.48
2023-11-29T23:02:29.012Z,-1.45
2023-11-29T23:05:32.135Z,-1.51
2023-11-29T23:08:34.552Z,-1.47
2023-11-29T23:11:37.237Z,-1.52
2023-11-29T23:14:39.776Z,-1.57
2023-11-29T23:17:42.603Z,-1.58
2023-11-29T23:20:45.220Z,-1.53
2023-11-29T23:23:48.169Z,-1.46
2023-11-29T23:26:50.443Z,-1.42
2023-11-29T23:29:53.076Z,-1.55
2023-11-29T23:32:55.733Z,-1.65
2023-11-29T23:35:58.711Z,-1.63
2023-11-29T23:39:01.299Z,-1.58
2023-11-29T23:42:05.834Z,-1.55
2023-11-29T23:45:08.671Z,-1.44
2023-11-29T23:48:11.515Z,-1.23
2023-11-29T23:51:14.307Z,-1.24
2023-11-29T23:54:16.971Z,-1.19
2023-11-29T23:57:19.508Z,-1.21
